Time,TemperatureF,DewpointF,PressureIn,WindDirection,WindDirectionDegrees,WindSpeedMPH,WindSpeedGustMPH,Humidity,HourlyPrecipIn,Conditions,Clouds,dailyrainin,SoftwareType,DateUTC
2013-02-09 07:16:00,28.0,6.8,28.97,SE,146,8.7,8.7,40,0.00,,---,0.00,VWS V14.01,2013-02-09 14:16:00,
2013-02-09 07:21:00,28.4,7.2,28.97,SSE,152,8.7,8.7,40,0.00,,---,0.00,VWS V14.01,2013-02-09 14:21:00,
2013-02-09 07:26:00,28.4,7.2,28.97,SE,141,10.5,10.5,40,0.00,,---,0.00,VWS V14.01,2013-02-09 14:26:00,
2013-02-09 07:31:00,28.9,7.7,28.97,SE,142,8.7,8.7,40,0.00,,---,0.00,VWS V14.01,2013-02-09 14:31:00,
2013-02-09 07:36:00,29.3,8.0,28.97,SE,139,10.1,10.1,40,0.00,,---,0.00,VWS V14.01,2013-02-09 14:36:00,
2013-02-09 07:41:00,29.7,8.9,28.97,SE,144,9.2,10.1,41,0.00,,---,0.00,VWS V14.01,2013-02-09 14:41:00,
2013-02-09 07:46:00,29.7,8.9,28.97,SSE,153,10.5,13.2,41,0.00,,---,0.00,VWS V14.01,2013-02-09 14:46:00,
2013-02-09 07:51:00,29.7,8.9,28.97,SE,135,11.0,11.0,41,0.00,,---,0.00,VWS V14.01,2013-02-09 14:51:00,
2013-02-09 07:56:00,31.8,10.3,28.97,SE,133,13.2,13.2,40,0.00,,---,0.00,VWS V14.01,2013-02-09 14:56:00,
2013-02-09 08:01:00,32.4,10.8,28.97,SSE,159,12.3,14.1,40,0.00,,---,0.00,VWS V14.01,2013-02-09 15:01:00,
2013-02-09 08:06:00,32.4,10.8,28.97,SE,141,14.5,14.5,40,0.00,,---,0.00,VWS V14.01,2013-02-09 15:06:00,
2013-02-09 08:11:00,32.4,10.8,28.94,SE,136,10.5,13.2,40,0.00,,---,0.00,VWS V14.01,2013-02-09 15:11:00,
2013-02-09 08:16:00,34.0,12.2,28.94,SE,145,15.0,15.0,40,0.00,,---,0.00,VWS V14.01,2013-02-09 15:16:00,
2013-02-09 08:21:00,34.3,12.5,28.94,SE,146,15.0,15.0,40,0.00,,---,0.00,VWS V14.01,2013-02-09 15:21:00,
2013-02-09 08:26:00,35.1,12.6,28.94,SSE,153,13.2,13.2,39,0.00,,---,0.00,VWS V14.01,2013-02-09 15:26:00,
2013-02-09 08:31:00,35.1,12.6,28.94,SE,146,15.9,15.9,39,0.00,,---,0.00,VWS V14.01,2013-02-09 15:31:00,
2013-02-09 08:37:00,35.1,12.6,28.94,SE,146,12.8,12.8,39,0.00,,---,0.00,VWS V14.01,2013-02-09 15:37:00,
2013-02-09 08:42:00,36.3,12.6,28.94,SSE,148,15.0,15.4,37,0.00,,---,0.00,VWS V14.01,2013-02-09 15:42:00,
2013-02-09 08:47:00,36.9,13.0,28.94,SE,145,15.4,15.4,37,0.00,,---,0.00,VWS V14.01,2013-02-09 15:47:00,
2013-02-09 08:52:00,37.2,12.7,28.94,SSE,154,13.2,15.9,36,0.00,,---,0.00,VWS V14.01,2013-02-09 15:52:00,
2013-02-09 08:57:00,37.2,12.7,28.94,SSE,147,15.4,15.4,36,0.00,,---,0.00,VWS V14.01,2013-02-09 15:57:00,
2013-02-09 09:03:00,38.1,12.9,28.91,SE,140,17.0,17.0,35,0.00,,---,0.00,VWS V14.01,2013-02-09 16:03:00,
2013-02-09 09:08:00,38.8,13.5,28.91,SSE,155,17.0,17.0,35,0.00,,---,0.00,VWS V14.01,2013-02-09 16:08:00,
2013-02-09 09:14:00,38.8,13.5,28.91,SE,142,14.5,14.5,35,0.00,,---,0.00,VWS V14.01,2013-02-09 16:14:00,
2013-02-09 09:19:00,39.7,13.0,28.91,SE,144,12.8,17.0,33,0.00,,---,0.00,VWS V14.01,2013-02-09 16:19:00,
2013-02-09 09:25:00,39.7,13.0,28.91,South,183,15.4,15.4,33,0.00,,---,0.00,VWS V14.01,2013-02-09 16:25:00,
2013-02-09 09:30:00,39.7,13.0,28.91,SE,140,17.4,17.4,33,0.00,,---,0.00,VWS V14.01,2013-02-09 16:30:00,
2013-02-09 09:35:00,41.0,13.4,28.91,SE,142,17.4,17.4,32,0.00,,---,0.00,VWS V14.01,2013-02-09 16:35:00,
2013-02-09 09:40:00,41.4,13.0,28.91,SSE,148,17.4,17.4,31,0.00,,---,0.00,VWS V14.01,2013-02-09 16:40:00,
2013-02-09 09:45:00,41.4,13.0,28.88,SSE,152,15.0,15.0,31,0.00,,---,0.00,VWS V14.01,2013-02-09 16:45:00,
2013-02-09 09:51:00,41.9,13.5,28.88,SSE,149,14.5,14.5,31,0.00,,---,0.00,VWS V14.01,2013-02-09 16:51:00,
2013-02-09 09:56:00,42.4,13.2,28.88,SSE,158,17.9,17.9,30,0.00,,---,0.00,VWS V14.01,2013-02-09 16:56:00,
2013-02-09 10:01:00,42.6,13.4,28.88,SSE,155,13.2,13.2,30,0.00,,---,0.00,VWS V14.01,2013-02-09 17:01:00,
2013-02-09 10:07:00,42.8,12.8,28.88,SSE,152,15.0,16.8,29,0.00,,---,0.00,VWS V14.01,2013-02-09 17:07:00,
2013-02-09 10:12:00,42.8,12.8,28.88,SSE,147,13.2,13.2,29,0.00,,---,0.00,VWS V14.01,2013-02-09 17:12:00,
2013-02-09 10:17:00,43.7,13.5,28.88,SSE,159,16.8,16.8,29,0.00,,---,0.00,VWS V14.01,2013-02-09 17:17:00,
2013-02-09 10:23:00,44.1,13.9,28.88,SSE,159,11.9,11.9,29,0.00,,---,0.00,VWS V14.01,2013-02-09 17:23:00,
2013-02-09 10:29:00,44.1,13.9,28.88,SSE,154,15.0,15.0,29,0.00,,---,0.00,VWS V14.01,2013-02-09 17:29:00,
2013-02-09 10:34:00,44.1,13.9,28.85,SE,136,11.9,13.6,29,0.00,,---,0.00,VWS V14.01,2013-02-09 17:34:00,
2013-02-09 10:39:00,44.6,13.5,28.85,SE,128,20.6,20.6,28,0.00,,---,0.00,VWS V14.01,2013-02-09 17:39:00,
2013-02-09 10:44:00,44.6,13.5,28.85,SSE,156,15.4,16.8,28,0.00,,---,0.00,VWS V14.01,2013-02-09 17:44:00,
2013-02-09 10:49:00,44.6,13.5,28.85,SE,133,16.3,16.3,28,0.00,,---,0.00,VWS V14.01,2013-02-09 17:49:00,
2013-02-09 10:54:00,44.6,13.5,28.85,SSE,147,16.3,18.3,28,0.00,,---,0.00,VWS V14.01,2013-02-09 17:54:00,
2013-02-09 10:59:00,45.0,13.8,28.82,SE,142,15.4,15.4,28,0.00,,---,0.00,VWS V14.01,2013-02-09 17:59:00,
2013-02-09 11:04:00,45.3,13.3,28.82,SE,143,16.8,16.8,27,0.00,,---,0.00,VWS V14.01,2013-02-09 18:04:00,
2013-02-09 11:09:00,45.3,13.3,28.82,SE,140,15.4,15.4,27,0.00,,---,0.00,VWS V14.01,2013-02-09 18:09:00,
2013-02-09 11:14:00,45.5,13.5,28.79,ESE,120,15.4,15.4,27,0.00,,---,0.00,VWS V14.01,2013-02-09 18:14:00,
2013-02-09 11:19:00,45.5,13.5,28.79,SE,145,17.4,21.9,27,0.00,,---,0.00,VWS V14.01,2013-02-09 18:19:00,
2013-02-09 11:24:00,45.5,13.5,28.79,SE,141,13.2,14.1,27,0.00,,---,0.00,VWS V14.01,2013-02-09 18:24:00,
2013-02-09 11:29:00,46.2,12.4,28.79,SE,144,16.8,16.8,25,0.00,,---,0.00,VWS V14.01,2013-02-09 18:29:00,
2013-02-09 11:34:00,46.4,11.6,28.79,SSE,159,15.4,20.1,24,0.00,,---,0.00,VWS V14.01,2013-02-09 18:34:00,
2013-02-09 11:40:00,46.4,11.6,28.79,SSE,147,16.3,20.1,24,0.00,,---,0.00,VWS V14.01,2013-02-09 18:40:00,
2013-02-09 11:45:00,46.4,11.6,28.76,SE,141,11.9,11.9,24,0.00,,---,0.00,VWS V14.01,2013-02-09 18:45:00,
2013-02-09 11:50:00,46.9,12.1,28.76,SE,135,13.2,13.2,24,0.00,,---,0.00,VWS V14.01,2013-02-09 18:50:00,
2013-02-09 11:55:00,47.3,12.4,28.76,SE,139,15.4,15.4,24,0.00,,---,0.00,VWS V14.01,2013-02-09 18:55:00,
2013-02-09 12:00:00,47.7,10.7,28.76,ESE,112,20.6,20.6,22,0.00,,---,0.00,VWS V14.01,2013-02-09 19:00:00,
2013-02-09 12:05:00,47.7,10.7,28.73,SE,128,21.5,22.8,22,0.00,,---,0.00,VWS V14.01,2013-02-09 19:05:00,
2013-02-09 12:10:00,47.7,10.7,28.73,SE,137,21.0,21.0,22,0.00,,---,0.00,VWS V14.01,2013-02-09 19:10:00,
2013-02-09 12:15:00,47.7,10.7,28.73,SE,141,18.8,18.8,22,0.00,,---,0.00,VWS V14.01,2013-02-09 19:15:00,
2013-02-09 12:20:00,48.2,10.1,28.70,SE,144,15.0,15.0,21,0.00,,---,0.00,VWS V14.01,2013-02-09 19:20:00,
2013-02-09 12:25:00,48.2,10.1,28.70,SE,141,16.8,16.8,21,0.00,,---,0.00,VWS V14.01,2013-02-09 19:25:00,
2013-02-09 12:30:00,48.4,10.3,28.70,SSE,148,22.4,22.4,21,0.00,,---,0.00,VWS V14.01,2013-02-09 19:30:00,
2013-02-09 12:35:00,48.6,10.4,28.67,ESE,119,20.6,20.6,21,0.00,,---,0.00,VWS V14.01,2013-02-09 19:35:00,
2013-02-09 12:40:00,48.6,10.4,28.67,ESE,104,22.4,22.4,21,0.00,,---,0.00,VWS V14.01,2013-02-09 19:40:00,
2013-02-09 12:45:00,49.1,10.9,28.67,SSE,149,19.2,19.2,21,0.00,,---,0.00,VWS V14.01,2013-02-09 19:45:00,
2013-02-09 12:50:00,49.1,10.9,28.67,ESE,103,15.4,17.4,21,0.00,,---,0.00,VWS V14.01,2013-02-09 19:50:00,
2013-02-09 12:55:00,49.1,10.9,28.67,ESE,123,16.3,16.3,21,0.00,,---,0.00,VWS V14.01,2013-02-09 19:55:00,
2013-02-09 13:00:00,49.5,8.9,28.64,SE,142,21.9,24.6,19,0.00,,---,0.00,VWS V14.01,2013-02-09 20:00:00,
2013-02-09 13:05:00,49.5,8.9,28.64,SE,146,29.3,29.3,19,0.00,,---,0.00,VWS V14.01,2013-02-09 20:05:00,
2013-02-09 13:10:00,49.5,8.9,28.64,SE,126,28.0,28.0,19,0.00,,---,0.00,VWS V14.01,2013-02-09 20:10:00,
2013-02-09 13:15:00,49.6,9.1,28.64,ESE,123,20.6,20.6,19,0.00,,---,0.00,VWS V14.01,2013-02-09 20:15:00,
2013-02-09 13:20:00,49.6,9.1,28.64,ESE,121,23.3,23.3,19,0.00,,---,0.00,VWS V14.01,2013-02-09 20:20:00,
2013-02-09 13:25:00,49.6,9.1,28.61,SE,127,22.8,22.8,19,0.00,,---,0.00,VWS V14.01,2013-02-09 20:25:00,
2013-02-09 13:30:00,49.6,9.1,28.61,SE,135,21.5,21.5,19,0.00,,---,0.00,VWS V14.01,2013-02-09 20:30:00,
2013-02-09 13:35:00,49.6,9.1,28.58,SSE,149,26.2,26.2,19,0.00,,---,0.00,VWS V14.01,2013-02-09 20:35:00,
2013-02-09 13:40:00,50.0,9.4,28.58,SSE,147,23.3,23.3,19,0.00,,---,0.00,VWS V14.01,2013-02-09 20:40:00,
2013-02-09 13:45:00,50.0,9.4,28.58,SE,136,27.5,29.8,19,0.00,,---,0.00,VWS V14.01,2013-02-09 20:45:00,
2013-02-09 13:50:00,49.8,9.2,28.52,SE,137,20.6,22.8,19,0.00,,---,0.00,VWS V14.01,2013-02-09 20:50:00,
2013-02-09 13:55:00,50.2,9.5,28.52,ESE,116,22.8,22.8,19,0.00,,---,0.00,VWS V14.01,2013-02-09 20:55:00,
2013-02-09 14:00:00,50.2,9.5,28.52,SE,126,23.7,23.7,19,0.00,,---,0.00,VWS V14.01,2013-02-09 21:00:00,
2013-02-09 14:05:00,50.2,9.5,28.46,SE,124,28.9,28.9,19,0.00,,---,0.00,VWS V14.01,2013-02-09 21:05:00,
2013-02-09 14:10:00,50.4,9.7,28.46,ESE,105,18.3,24.2,19,0.00,,---,0.00,VWS V14.01,2013-02-09 21:10:00,
2013-02-09 14:15:00,50.4,11.9,28.46,SE,127,31.1,31.1,21,0.00,,---,0.00,VWS V14.01,2013-02-09 21:15:00,
2013-02-09 14:20:00,50.4,11.9,28.46,ESE,120,17.4,18.8,21,0.00,,---,0.00,VWS V14.01,2013-02-09 21:20:00,
2013-02-09 14:25:00,50.4,11.9,28.46,SE,140,25.5,28.9,21,0.00,,---,0.00,VWS V14.01,2013-02-09 21:25:00,
2013-02-09 14:30:00,50.4,11.9,28.40,SSE,153,23.3,23.3,21,0.00,,---,0.00,VWS V14.01,2013-02-09 21:30:00,
2013-02-09 14:35:00,50.4,11.9,28.40,ESE,113,26.6,26.6,21,0.00,,---,0.00,VWS V14.01,2013-02-09 21:35:00,
2013-02-09 14:40:00,50.5,12.1,28.40,SE,139,28.9,28.9,21,0.00,,---,0.00,VWS V14.01,2013-02-09 21:40:00,
2013-02-09 14:45:00,50.7,12.2,28.40,ESE,116,25.5,25.5,21,0.00,,---,0.00,VWS V14.01,2013-02-09 21:45:00,
2013-02-09 14:50:00,50.9,12.4,28.32,SE,125,17.9,28.4,21,0.00,,---,0.00,VWS V14.01,2013-02-09 21:50:00,
2013-02-09 14:55:00,51.1,12.5,28.32,SE,127,21.9,23.3,21,0.00,,---,0.00,VWS V14.01,2013-02-09 21:55:00,
2013-02-09 15:00:00,50.9,12.4,28.26,East,100,16.8,19.2,21,0.00,,---,0.00,VWS V14.01,2013-02-09 22:00:00,
2013-02-09 15:05:00,50.7,12.2,28.26,ESE,104,15.4,15.4,21,0.00,,---,0.00,VWS V14.01,2013-02-09 22:05:00,
2013-02-09 15:10:00,50.7,12.2,28.26,ESE,109,18.3,23.3,21,0.00,,---,0.00,VWS V14.01,2013-02-09 22:10:00,
2013-02-09 15:15:00,50.5,15.1,28.20,ESE,122,17.4,20.1,24,0.00,,---,0.00,VWS V14.01,2013-02-09 22:15:00,
2013-02-09 15:20:00,50.7,15.3,28.20,East,81,15.4,16.3,24,0.00,,---,0.00,VWS V14.01,2013-02-09 22:20:00,
2013-02-09 15:25:00,50.9,15.4,28.20,East,97,15.4,16.8,24,0.00,,---,0.00,VWS V14.01,2013-02-09 22:25:00,
2013-02-09 15:30:00,50.9,15.4,28.20,SE,133,22.8,25.7,24,0.00,,---,0.00,VWS V14.01,2013-02-09 22:30:00,
2013-02-09 15:35:00,51.4,15.9,28.14,SSE,149,25.1,25.1,24,0.00,,---,0.00,VWS V14.01,2013-02-09 22:35:00,
2013-02-09 15:40:00,51.6,16.0,28.14,SE,140,22.4,22.4,24,0.00,,---,0.00,VWS V14.01,2013-02-09 22:40:00,
2013-02-09 15:45:00,51.8,15.2,28.14,SE,128,25.5,25.5,23,0.00,,---,0.00,VWS V14.01,2013-02-09 22:45:00,
2013-02-09 15:50:00,51.8,15.2,28.11,SE,141,23.3,24.2,23,0.00,,---,0.00,VWS V14.01,2013-02-09 22:50:00,
2013-02-09 15:55:00,51.8,15.2,28.11,SE,141,24.2,24.2,23,0.00,,---,0.00,VWS V14.01,2013-02-09 22:55:00,
2013-02-09 16:00:00,51.6,16.0,28.11,SE,138,15.4,20.6,24,0.00,,---,0.00,VWS V14.01,2013-02-09 23:00:00,
2013-02-09 16:05:00,51.3,15.7,28.08,ESE,118,22.8,22.8,24,0.00,,---,0.00,VWS V14.01,2013-02-09 23:05:00,
2013-02-09 16:10:00,51.1,15.6,28.08,SE,124,13.6,17.9,24,0.00,,---,0.00,VWS V14.01,2013-02-09 23:10:00,
2013-02-09 16:15:00,50.5,15.1,28.08,SE,131,13.2,13.2,24,0.00,,---,0.00,VWS V14.01,2013-02-09 23:15:00,
2013-02-09 16:20:00,50.2,14.8,28.08,ESE,115,12.8,12.8,24,0.00,,---,0.00,VWS V14.01,2013-02-09 23:20:00,
2013-02-09 16:25:00,49.6,14.3,28.08,ESE,111,11.0,11.0,24,0.00,,---,0.00,VWS V14.01,2013-02-09 23:25:00,
2013-02-09 16:31:00,49.1,13.9,28.05,East,99,12.8,12.8,24,0.00,,---,0.00,VWS V14.01,2013-02-09 23:31:00,
2013-02-09 16:36:00,48.7,13.6,28.05,ESE,106,8.7,10.5,24,0.00,,---,0.00,VWS V14.01,2013-02-09 23:36:00,
2013-02-09 16:41:00,48.6,13.4,28.05,East,101,8.7,8.7,24,0.00,,---,0.00,VWS V14.01,2013-02-09 23:41:00,
2013-02-09 16:46:00,48.4,13.3,28.05,ESE,107,9.2,10.1,24,0.00,,---,0.00,VWS V14.01,2013-02-09 23:46:00,
2013-02-09 16:51:00,48.2,13.1,28.05,ESE,111,13.2,13.2,24,0.00,,---,0.00,VWS V14.01,2013-02-09 23:51:00,
2013-02-09 16:56:00,48.2,13.1,28.02,ESE,103,10.1,10.1,24,0.00,,---,0.00,VWS V14.01,2013-02-09 23:56:00,
2013-02-09 17:01:00,48.0,15.6,28.02,East,101,12.8,12.8,27,0.00,,---,0.00,VWS V14.01,2013-02-10 00:01:00,
2013-02-09 17:06:00,48.0,15.6,28.02,East,86,8.7,8.7,27,0.00,,---,0.00,VWS V14.01,2013-02-10 00:06:00,
2013-02-09 17:11:00,47.8,15.5,28.02,East,79,11.9,11.9,27,0.00,,---,0.00,VWS V14.01,2013-02-10 00:11:00,
2013-02-09 17:16:00,47.7,15.3,28.02,East,86,10.1,10.1,27,0.00,,---,0.00,VWS V14.01,2013-02-10 00:16:00,
2013-02-09 17:21:00,47.5,15.2,28.02,ENE,78,12.3,12.3,27,0.00,,---,0.00,VWS V14.01,2013-02-10 00:21:00,
2013-02-09 17:26:00,47.1,14.9,28.02,ENE,69,13.6,13.6,27,0.00,,---,0.00,VWS V14.01,2013-02-10 00:26:00,
2013-02-09 17:31:00,47.1,14.9,28.02,ESE,103,12.8,17.4,27,0.00,,---,0.00,VWS V14.01,2013-02-10 00:31:00,
2013-02-09 17:36:00,47.5,15.2,28.02,ESE,119,20.6,20.6,27,0.00,,---,0.00,VWS V14.01,2013-02-10 00:36:00,
2013-02-09 17:41:00,47.8,15.5,28.02,ESE,106,19.2,19.2,27,0.00,,---,0.00,VWS V14.01,2013-02-10 00:41:00,
2013-02-09 17:46:00,48.6,16.1,28.02,South,179,25.5,25.5,27,0.00,,---,0.00,VWS V14.01,2013-02-10 00:46:00,
2013-02-09 17:51:00,48.2,19.0,28.02,South,184,24.2,24.2,31,0.00,,---,0.00,VWS V14.01,2013-02-10 00:51:00,
2013-02-09 17:56:00,47.3,20.4,28.02,SSW,194,19.7,22.4,34,0.00,,---,0.00,VWS V14.01,2013-02-10 00:56:00,
2013-02-09 18:01:00,45.7,20.9,28.02,South,181,19.2,25.7,37,0.00,,---,0.00,VWS V14.01,2013-02-10 01:01:00,
2013-02-09 18:06:00,44.8,21.4,28.02,SSW,193,21.9,22.8,39,0.00,,---,0.00,VWS V14.01,2013-02-10 01:06:00,
2013-02-09 18:11:00,44.1,23.0,28.02,SSW,199,21.5,29.8,43,0.00,,---,0.00,VWS V14.01,2013-02-10 01:11:00,
2013-02-09 18:16:00,43.3,24.0,28.02,SSW,203,15.4,15.9,46,0.00,,---,0.00,VWS V14.01,2013-02-10 01:16:00,
2013-02-09 18:21:00,42.6,24.3,28.02,SSE,165,11.0,15.4,48,0.00,,---,0.00,VWS V14.01,2013-02-10 01:21:00,
2013-02-09 18:26:00,42.1,23.8,28.02,South,189,8.1,11.0,48,0.00,,---,0.00,VWS V14.01,2013-02-10 01:26:00,
2013-02-09 18:31:00,41.7,24.5,28.02,South,183,11.0,14.1,50,0.04,,---,0.04,VWS V14.01,2013-02-10 01:31:00,
2013-02-09 18:36:00,41.5,24.3,28.02,South,177,8.7,8.7,50,0.04,,---,0.04,VWS V14.01,2013-02-10 01:36:00,
2013-02-09 18:41:00,41.2,24.0,28.02,South,171,6.3,7.6,50,0.04,,---,0.04,VWS V14.01,2013-02-10 01:41:00,
2013-02-09 18:46:00,41.0,23.3,28.02,SSE,156,5.4,6.3,49,0.04,,---,0.04,VWS V14.01,2013-02-10 01:46:00,
2013-02-09 18:51:00,40.8,23.6,28.02,ESE,105,5.8,5.8,50,0.04,,---,0.04,VWS V14.01,2013-02-10 01:51:00,
2013-02-09 18:56:00,40.6,23.0,28.02,East,97,4.0,4.0,49,0.04,,---,0.04,VWS V14.01,2013-02-10 01:56:00,
2013-02-09 19:01:00,40.5,22.8,28.02,East,97,4.9,4.9,49,0.04,,---,0.04,VWS V14.01,2013-02-10 02:01:00,
2013-02-09 19:06:00,40.3,22.7,28.02,East,97,3.6,3.6,49,0.04,,---,0.04,VWS V14.01,2013-02-10 02:06:00,
2013-02-09 19:11:00,40.3,22.7,28.02,East,97,3.6,3.6,49,0.04,,---,0.04,VWS V14.01,2013-02-10 02:11:00,
2013-02-09 19:16:00,40.1,22.5,27.99,NE,52,5.4,5.4,49,0.04,,---,0.04,VWS V14.01,2013-02-10 02:16:00,
2013-02-09 19:22:00,40.1,22.5,27.99,NNE,33,5.4,5.4,49,0.04,,---,0.04,VWS V14.01,2013-02-10 02:22:00,
2013-02-09 19:27:00,39.7,22.2,27.99,NNE,21,5.4,5.4,49,0.04,,---,0.04,VWS V14.01,2013-02-10 02:27:00,
2013-02-09 19:33:00,39.6,21.5,27.99,NNE,18,12.3,12.3,48,0.00,,---,0.04,VWS V14.01,2013-02-10 02:33:00,
2013-02-09 19:38:00,39.2,21.2,27.96,North,4,10.1,11.0,48,0.00,,---,0.04,VWS V14.01,2013-02-10 02:38:00,
2013-02-09 19:43:00,39.2,21.7,27.96,ENE,57,5.4,6.3,49,0.00,,---,0.04,VWS V14.01,2013-02-10 02:43:00,
2013-02-09 19:49:00,39.2,22.6,27.96,SSW,200,23.7,23.7,51,0.00,,---,0.04,VWS V14.01,2013-02-10 02:49:00,
2013-02-09 19:55:00,37.8,22.2,27.96,West,271,9.2,19.2,53,0.00,,---,0.04,VWS V14.01,2013-02-10 02:55:00,
2013-02-09 20:01:00,38.1,22.5,27.99,West,265,10.1,10.1,53,0.00,,---,0.04,VWS V14.01,2013-02-10 03:01:00,
2013-02-09 20:07:00,36.9,20.4,27.99,WSW,250,8.3,8.3,51,0.00,,---,0.04,VWS V14.01,2013-02-10 03:07:00,
2013-02-09 20:12:00,36.0,19.6,27.99,WSW,256,9.2,9.2,51,0.00,,---,0.04,VWS V14.01,2013-02-10 03:12:00,
2013-02-09 20:17:00,35.1,19.7,27.99,WNW,283,10.5,12.3,53,0.00,,---,0.04,VWS V14.01,2013-02-10 03:17:00,
2013-02-09 20:22:00,34.5,19.6,27.99,West,273,5.4,8.1,54,0.00,,---,0.04,VWS V14.01,2013-02-10 03:22:00,
2013-02-09 20:27:00,34.2,19.7,27.96,WNW,292,10.1,10.1,55,0.00,,---,0.04,VWS V14.01,2013-02-10 03:27:00,
2013-02-09 20:33:00,33.6,19.6,27.96,NW,313,11.0,11.0,56,0.00,,---,0.04,VWS V14.01,2013-02-10 03:33:00,
2013-02-09 20:38:00,33.4,19.9,27.96,North,0,9.6,9.6,57,0.00,,---,0.04,VWS V14.01,2013-02-10 03:38:00,
2013-02-09 20:43:00,33.3,20.9,27.96,NW,319,7.6,7.6,60,0.00,,---,0.04,VWS V14.01,2013-02-10 03:43:00,
2013-02-09 20:48:00,33.3,21.3,27.90,WNW,301,6.3,6.3,61,0.00,,---,0.04,VWS V14.01,2013-02-10 03:48:00,
2013-02-09 20:53:00,33.4,21.5,27.90,NW,319,6.3,6.7,61,0.00,,---,0.04,VWS V14.01,2013-02-10 03:53:00,
2013-02-09 20:59:00,33.6,22.0,27.93,NW,319,7.6,7.6,62,0.00,,---,0.04,VWS V14.01,2013-02-10 03:59:00,
2013-02-09 21:04:00,33.6,22.4,27.93,NW,319,7.6,8.7,63,0.00,,---,0.04,VWS V14.01,2013-02-10 04:04:00,
2013-02-09 21:09:00,33.6,22.4,27.93,NW,325,8.7,11.0,63,0.00,,---,0.04,VWS V14.01,2013-02-10 04:09:00,
2013-02-09 21:14:00,33.8,22.9,27.90,NW,313,10.1,10.1,64,0.00,,---,0.04,VWS V14.01,2013-02-10 04:14:00,
2013-02-09 21:20:00,33.8,24.0,27.90,NNW,341,10.5,13.2,67,0.00,,---,0.04,VWS V14.01,2013-02-10 04:20:00,
2013-02-09 21:25:00,33.8,24.4,27.90,NW,317,13.2,13.2,68,0.04,,---,0.08,VWS V14.01,2013-02-10 04:25:00,
2013-02-09 21:31:00,33.4,24.7,27.90,North,353,15.9,15.9,70,0.04,,---,0.08,VWS V14.01,2013-02-10 04:31:00,
2013-02-09 21:36:00,33.3,24.9,27.90,NNW,348,13.6,13.6,71,0.04,,---,0.08,VWS V14.01,2013-02-10 04:36:00,
2013-02-09 21:41:00,33.1,25.0,27.90,North,353,12.3,13.2,72,0.04,,---,0.08,VWS V14.01,2013-02-10 04:41:00,
2013-02-09 21:46:00,32.7,25.0,27.87,NNW,330,14.1,14.1,73,0.04,,---,0.08,VWS V14.01,2013-02-10 04:46:00,
2013-02-09 21:51:00,32.5,25.2,27.87,NNW,340,13.2,13.2,74,0.04,,---,0.08,VWS V14.01,2013-02-10 04:51:00,
2013-02-09 21:56:00,32.5,25.2,27.84,North,353,15.4,18.8,74,0.04,,---,0.08,VWS V14.01,2013-02-10 04:56:00,
2013-02-09 22:00:00,32.4,25.3,27.84,NNW,334,17.4,17.4,75,0.04,,---,0.08,VWS V14.01,2013-02-10 05:00:00,
2013-02-09 22:03:00,32.2,25.2,27.84,NNW,334,16.8,16.8,75,0.04,,---,0.08,VWS V14.01,2013-02-10 05:03:00,
2013-02-09 22:08:00,32.0,25.3,27.84,NNW,346,24.6,24.6,76,0.04,,---,0.08,VWS V14.01,2013-02-10 05:08:00,
2013-02-09 22:13:00,31.6,25.0,27.84,NNW,338,13.2,18.8,76,0.04,,---,0.08,VWS V14.01,2013-02-10 05:13:00,
2013-02-09 22:15:00,31.5,24.8,27.84,NNW,338,13.2,13.2,76,0.04,,---,0.08,VWS V14.01,2013-02-10 05:15:00,
2013-02-09 22:20:00,31.3,24.6,27.84,NNW,331,14.1,18.3,76,0.04,,---,0.08,VWS V14.01,2013-02-10 05:20:00,
2013-02-09 22:25:00,30.7,24.1,27.84,NW,315,18.3,18.3,76,0.00,,---,0.08,VWS V14.01,2013-02-10 05:25:00,
2013-02-09 22:30:00,30.4,23.7,27.84,NW,326,21.9,21.9,76,0.00,,---,0.08,VWS V14.01,2013-02-10 05:30:00,
2013-02-09 22:35:00,30.0,23.4,27.84,NW,311,15.9,15.9,76,0.00,,---,0.08,VWS V14.01,2013-02-10 05:35:00,
2013-02-09 22:40:00,29.7,23.0,27.84,NW,308,15.4,15.4,76,0.00,,---,0.08,VWS V14.01,2013-02-10 05:40:00,
2013-02-09 22:45:00,29.3,22.7,27.84,NW,311,20.6,20.6,76,0.00,,---,0.08,VWS V14.01,2013-02-10 05:45:00,
2013-02-09 22:50:00,28.9,22.3,27.84,NW,310,19.7,19.7,76,0.00,,---,0.08,VWS V14.01,2013-02-10 05:50:00,
2013-02-09 22:54:00,28.8,22.2,27.84,NW,311,19.2,19.7,76,0.00,,---,0.08,VWS V14.01,2013-02-10 05:54:00,
2013-02-09 22:59:00,28.6,22.0,27.84,WNW,300,17.9,17.9,76,0.00,,---,0.08,VWS V14.01,2013-02-10 05:59:00,
2013-02-09 23:04:00,28.4,22.1,27.84,NW,306,21.0,24.2,77,0.00,,---,0.08,VWS V14.01,2013-02-10 06:04:00,
2013-02-09 23:09:00,28.0,21.8,27.81,WNW,294,20.1,21.5,77,0.00,,---,0.08,VWS V14.01,2013-02-10 06:09:00,
2013-02-09 23:14:00,27.9,21.3,27.81,WNW,292,19.7,21.0,76,0.00,,---,0.08,VWS V14.01,2013-02-10 06:14:00,
2013-02-09 23:19:00,27.7,21.1,27.81,WNW,299,22.8,22.8,76,0.00,,---,0.08,VWS V14.01,2013-02-10 06:19:00,
2013-02-09 23:24:00,27.5,20.9,27.78,WNW,297,24.2,24.2,76,0.00,,---,0.08,VWS V14.01,2013-02-10 06:24:00,
2013-02-09 23:29:00,27.5,20.9,27.76,WNW,297,13.6,17.4,76,0.00,,---,0.08,VWS V14.01,2013-02-10 06:29:00,
2013-02-09 23:34:00,27.3,20.8,27.76,NW,317,21.0,21.0,76,0.00,,---,0.08,VWS V14.01,2013-02-10 06:34:00,
2013-02-09 23:39:00,27.3,20.8,27.76,NW,310,16.3,16.3,76,0.00,,---,0.08,VWS V14.01,2013-02-10 06:39:00,
2013-02-09 23:44:00,27.1,20.6,27.70,NW,316,14.1,20.1,76,0.00,,---,0.08,VWS V14.01,2013-02-10 06:44:00,
2013-02-09 23:49:00,27.1,20.6,27.70,NW,304,23.3,23.3,76,0.00,,---,0.08,VWS V14.01,2013-02-10 06:49:00,
2013-02-09 23:54:00,27.1,20.6,27.70,NW,305,23.7,23.7,76,0.00,,---,0.08,VWS V14.01,2013-02-10 06:54:00,
2013-02-09 23:59:00,27.0,20.4,27.67,WNW,297,15.4,15.4,76,0.00,,---,0.08,VWS V14.01,2013-02-10 06:59:00,